Time;durP1;ratioP1;P1;durP2;ratioP2;P2;SDS_P1;SDS_P2;PMS_P1;PMS_P2;Temp;Humidity;BMP_temperature;BMP_pressure;BME280_temperature;BME280_humidity;BME280_pressure;Samples;Min_cycle;Max_cycle;Signal;HPM_P1;HPM_P2
2022/10/14 00:01:59;;;;;;;40.67;22.50;;;;;;;12.04;100.00;101371.41;5096122;28;20190;-87
2022/10/14 00:04:25;;;;;;;38.10;20.88;;;;;;;12.06;100.00;101379.34;5078954;28;20035;-83
2022/10/14 00:06:50;;;;;;;42.03;21.27;;;;;;;12.02;100.00;101381.66;5079200;28;20024;-83
2022/10/14 00:09:16;;;;;;;35.13;19.93;;;;;;;12.04;100.00;101387.72;5096494;28;20066;-83
2022/10/14 00:11:41;;;;;;;34.70;20.58;;;;;;;12.05;100.00;101389.41;5096110;28;20016;-83
2022/10/14 00:14:12;;;;;;;33.33;20.67;;;;;;;12.06;100.00;101384.78;5096151;28;20027;-83
2022/10/14 00:16:40;;;;;;;38.65;20.63;;;;;;;12.06;100.00;101396.53;5096756;28;20042;-83
2022/10/14 00:19:05;;;;;;;39.83;21.85;;;;;;;12.03;100.00;101379.75;5096934;28;20439;-83
2022/10/14 00:21:32;;;;;;;35.53;21.47;;;;;;;12.02;100.00;101389.81;5062579;28;20035;-83
2022/10/14 00:23:57;;;;;;;39.50;21.77;;;;;;;12.02;100.00;101391.72;5079312;28;20447;-83
2022/10/14 00:26:26;;;;;;;37.33;21.03;;;;;;;12.01;100.00;101377.25;5095527;28;20189;-83
2022/10/14 00:28:52;;;;;;;37.15;21.30;;;;;;;12.00;100.00;101386.50;5096188;28;20039;-83
2022/10/14 00:31:17;;;;;;;38.87;21.57;;;;;;;11.99;100.00;101384.81;5113864;28;20046;-83
2022/10/14 00:33:43;;;;;;;42.63;22.20;;;;;;;11.99;100.00;101382.09;5113647;28;20360;-83
2022/10/14 00:36:14;;;;;;;40.78;22.20;;;;;;;11.97;100.00;101381.44;5078841;28;20475;-83
2022/10/14 00:38:40;;;;;;;37.73;21.57;;;;;;;11.97;100.00;101367.84;5114145;28;20036;-83
2022/10/14 00:41:07;;;;;;;40.42;21.98;;;;;;;11.98;100.00;101366.81;5096704;28;20055;-83
2022/10/14 00:44:14;;;;;;;41.90;22.08;;;;;;;12.01;100.00;101360.94;5095936;28;20031;-83
2022/10/14 00:46:43;;;;;;;41.30;21.40;;;;;;;12.05;100.00;101356.75;5011460;28;20510;-83
2022/10/14 00:49:34;;;;;;;40.92;22.15;;;;;;;12.07;100.00;101351.94;5081453;28;20039;-83
2022/10/14 00:52:21;;;;;;;32.57;20.73;;;;;;;12.13;100.00;101352.97;5114911;28;20046;-83
2022/10/14 00:54:53;;;;;;;38.35;21.48;;;;;;;12.16;100.00;101351.72;5096604;28;20399;-83
2022/10/14 00:57:24;;;;;;;44.38;22.40;;;;;;;12.14;100.00;101351.94;5095727;28;20027;-83
2022/10/14 00:59:50;;;;;;;39.20;22.60;;;;;;;12.13;100.00;101341.25;5096227;28;20035;-83
2022/10/14 01:02:15;;;;;;;35.55;21.88;;;;;;;12.15;100.00;101339.16;5095943;28;20084;-83
2022/10/14 01:04:43;;;;;;;40.27;22.47;;;;;;;12.16;100.00;101343.56;5079102;28;20421;-83
2022/10/14 01:07:11;;;;;;;39.00;21.60;;;;;;;12.16;100.00;101341.66;5095730;28;20027;-83
2022/10/14 01:10:31;;;;;;;42.67;22.77;;;;;;;12.15;100.00;101341.88;5095880;28;20043;-83
2022/10/14 01:13:13;;;;;;;36.38;21.67;;;;;;;12.15;100.00;101333.72;5055688;28;20028;-83
2022/10/14 01:16:10;;;;;;;37.53;21.15;;;;;;;12.18;100.00;101334.13;5113802;28;20034;-83
2022/10/14 01:18:54;;;;;;;38.67;21.33;;;;;;;12.22;100.00;101340.81;5105141;28;20123;-83
2022/10/14 01:21:43;;;;;;;44.17;22.48;;;;;;;12.19;100.00;101326.78;5113746;28;20036;-83
2022/10/14 01:24:21;;;;;;;35.70;21.37;;;;;;;12.18;100.00;101315.09;5095746;28;20185;-83
2022/10/14 01:27:16;;;;;;;39.55;21.30;;;;;;;12.18;100.00;101317.81;5095179;28;20085;-83
2022/10/14 01:30:00;;;;;;;38.72;21.40;;;;;;;12.20;100.00;101307.53;5113504;28;20036;-82
2022/10/14 01:32:37;;;;;;;38.15;21.25;;;;;;;12.21;100.00;101303.78;5113679;28;20536;-83
2022/10/14 01:35:09;;;;;;;38.83;21.70;;;;;;;12.20;100.00;101301.28;5114276;28;20030;-82
2022/10/14 01:37:41;;;;;;;39.00;20.97;;;;;;;12.18;100.00;101301.50;5095384;28;20031;-83
2022/10/14 01:40:18;;;;;;;38.60;21.48;;;;;;;12.16;100.00;101292.69;5113994;28;20526;-83
2022/10/14 01:42:46;;;;;;;37.38;20.80;;;;;;;12.19;100.00;101291.44;5114137;28;20093;-83
2022/10/14 01:45:18;;;;;;;37.67;21.23;;;;;;;12.17;100.00;101283.50;5117283;28;20054;-83
2022/10/14 01:47:47;;;;;;;41.00;21.20;;;;;;;12.18;100.00;101281.59;5099322;28;20066;-83
2022/10/14 01:50:16;;;;;;;43.93;21.30;;;;;;;12.18;100.00;101279.72;5099172;28;20035;-83
2022/10/14 01:52:59;;;;;;;44.58;22.00;;;;;;;12.19;100.00;101284.09;5098787;28;20043;-83
2022/10/14 01:55:32;;;;;;;37.30;21.40;;;;;;;12.17;100.00;101278.03;5099029;28;20099;-83
2022/10/14 01:57:59;;;;;;;43.13;21.40;;;;;;;12.14;100.00;101283.91;5098511;28;20038;-83
2022/10/14 02:00:25;;;;;;;40.72;21.52;;;;;;;12.12;100.00;101286.03;5098699;28;20055;-83
2022/10/14 02:02:51;;;;;;;38.27;20.73;;;;;;;12.11;100.00;101281.63;5116944;28;20028;-83
2022/10/14 02:05:20;;;;;;;41.97;22.13;;;;;;;12.10;100.00;101277.25;5098869;28;20543;-83
2022/10/14 02:07:50;;;;;;;41.33;20.60;;;;;;;12.13;100.00;101273.25;5116871;28;20110;-83
2022/10/14 02:10:22;;;;;;;39.80;20.55;;;;;;;12.13;100.00;101274.09;5098771;28;20110;-83
2022/10/14 02:12:54;;;;;;;42.05;22.27;;;;;;;12.15;100.00;101274.72;5099036;28;20028;-83
2022/10/14 02:15:31;;;;;;;42.42;21.02;;;;;;;12.12;100.00;101269.72;5098403;28;20031;-83
2022/10/14 02:18:08;;;;;;;40.65;20.75;;;;;;;12.14;100.00;101264.88;5098409;28;20027;-83
2022/10/14 02:20:39;;;;;;;37.03;19.80;;;;;;;12.14;100.00;101267.59;5098264;28;20031;-83
2022/10/14 02:23:11;;;;;;;44.63;21.13;;;;;;;12.14;100.00;101267.59;5098625;28;20028;-83
2022/10/14 02:25:41;;;;;;;40.67;20.90;;;;;;;12.16;100.00;101270.09;5116387;28;20047;-83
2022/10/14 02:28:09;;;;;;;39.72;21.25;;;;;;;12.17;100.00;101264.44;5098147;28;20494;-84
2022/10/14 02:30:40;;;;;;;38.67;20.45;;;;;;;12.20;100.00;101257.75;5081572;28;20039;-84
2022/10/14 02:33:06;;;;;;;47.27;20.97;;;;;;;12.21;100.00;101256.69;5098167;28;20035;-83
2022/10/14 02:35:37;;;;;;;40.88;20.63;;;;;;;12.20;100.00;101255.84;5097911;28;20046;-84
2022/10/14 02:38:04;;;;;;;46.08;20.98;;;;;;;12.20;100.00;101266.72;5097709;28;20035;-83
2022/10/14 02:40:40;;;;;;;43.75;20.63;;;;;;;12.21;100.00;101265.69;5116470;28;20043;-83
2022/10/14 02:43:08;;;;;;;41.50;19.57;;;;;;;12.22;100.00;101263.78;5116211;28;20035;-83
2022/10/14 02:45:35;;;;;;;44.67;19.58;;;;;;;12.21;100.00;101256.69;5098065;28;20036;-83
2022/10/14 02:48:01;;;;;;;43.00;20.25;;;;;;;12.23;100.00;101249.97;5097981;28;20460;-83
2022/10/14 02:50:26;;;;;;;47.93;19.90;;;;;;;12.23;100.00;101257.31;5097899;28;20023;-84
2022/10/14 02:52:51;;;;;;;49.13;21.07;;;;;;;12.22;100.00;101248.31;5116222;28;20357;-83
2022/10/14 02:55:17;;;;;;;49.15;19.80;;;;;;;12.23;100.00;101241.00;5080465;28;20578;-83
2022/10/14 02:57:43;;;;;;;50.97;20.03;;;;;;;12.22;100.00;101240.16;5064428;28;20472;-84
2022/10/14 03:00:09;;;;;;;47.03;19.63;;;;;;;12.23;100.00;101241.00;5064128;28;20035;-83
2022/10/14 03:02:38;;;;;;;52.67;20.30;;;;;;;12.24;100.00;101240.78;5063968;28;20850;-83
2022/10/14 03:05:04;;;;;;;50.28;20.27;;;;;;;12.27;100.00;101242.22;5080261;28;20111;-84
2022/10/14 03:07:32;;;;;;;51.67;20.63;;;;;;;12.22;100.00;101236.59;5098000;28;20059;-83
2022/10/14 03:09:57;;;;;;;45.28;19.35;;;;;;;12.21;100.00;101232.19;5081358;28;20031;-83
2022/10/14 03:12:23;;;;;;;42.70;19.40;;;;;;;12.20;100.00;101227.81;5080432;28;20042;-83
2022/10/14 03:14:52;;;;;;;47.88;19.75;;;;;;;12.24;100.00;101226.34;5080440;28;20059;-83
2022/10/14 03:17:17;;;;;;;42.00;19.03;;;;;;;12.24;100.00;101226.34;5097792;28;20035;-84
2022/10/14 03:19:45;;;;;;;48.75;19.35;;;;;;;12.25;100.00;101222.56;5097612;28;20081;-84
2022/10/14 03:22:11;;;;;;;48.23;19.93;;;;;;;12.26;100.00;101224.22;5097872;28;20020;-84
2022/10/14 03:24:37;;;;;;;49.65;19.67;;;;;;;12.23;100.00;101220.06;5096687;28;20072;-84
2022/10/14 03:27:02;;;;;;;49.10;19.63;;;;;;;12.22;100.00;101217.56;5081075;28;20032;-84
2022/10/14 03:29:27;;;;;;;49.75;20.83;;;;;;;12.24;100.00;101218.19;5080944;28;20063;-84
2022/10/14 03:31:53;;;;;;;53.43;19.30;;;;;;;12.26;100.00;101214.16;5079717;28;20063;-83
2022/10/14 03:34:18;;;;;;;42.93;18.50;;;;;;;12.29;100.00;101218.34;5097702;28;20046;-84
2022/10/14 03:36:44;;;;;;;37.27;18.40;;;;;;;12.29;100.00;101205.56;5080223;28;20031;-84
2022/10/14 03:39:10;;;;;;;47.17;19.70;;;;;;;12.33;100.00;101199.69;5079904;28;20509;-84
2022/10/14 03:41:35;;;;;;;42.22;18.48;;;;;;;12.33;100.00;101202.41;5096725;28;20020;-84
2022/10/14 03:44:01;;;;;;;35.43;16.83;;;;;;;12.34;100.00;101202.22;5079637;28;20058;-84
2022/10/14 03:46:29;;;;;;;44.38;18.30;;;;;;;12.36;100.00;101207.44;5080304;28;20058;-84
2022/10/14 03:48:55;;;;;;;39.78;17.90;;;;;;;12.35;100.00;101192.16;5097166;28;20031;-84
2022/10/14 03:51:21;;;;;;;36.60;17.73;;;;;;;12.37;100.00;101188.19;5096871;28;20027;-84
2022/10/14 03:53:47;;;;;;;36.65;17.23;;;;;;;12.37;100.00;101190.03;5096458;28;20023;-84
2022/10/14 03:56:12;;;;;;;39.67;17.67;;;;;;;12.37;100.00;101187.31;5096718;28;20059;-83
2022/10/14 03:58:38;;;;;;;35.10;16.83;;;;;;;12.35;100.00;101193.00;5096695;28;20019;-84
2022/10/14 04:01:03;;;;;;;31.53;16.53;;;;;;;12.38;100.00;101189.81;5096385;28;20388;-84
2022/10/14 04:03:29;;;;;;;34.03;17.83;;;;;;;12.40;100.00;101192.31;5062880;28;20063;-84
2022/10/14 04:05:54;;;;;;;47.13;16.93;;;;;;;12.41;100.00;101180.41;5096391;28;20024;-83
2022/10/14 04:08:20;;;;;;;28.05;15.27;;;;;;;12.44;100.00;101183.50;5079045;28;20034;-83
2022/10/14 04:10:51;;;;;;;28.77;15.40;;;;;;;12.44;100.00;101178.06;5114513;28;20489;-84
2022/10/14 04:13:17;;;;;;;28.70;15.65;;;;;;;12.43;100.00;101172.84;5096557;28;20065;-84
2022/10/14 04:15:42;;;;;;;37.20;15.07;;;;;;;12.45;100.00;101170.75;5096268;28;20023;-84
2022/10/14 04:18:08;;;;;;;30.17;14.80;;;;;;;12.45;100.00;101178.91;5079935;28;20431;-84
2022/10/14 04:20:33;;;;;;;26.97;15.17;;;;;;;12.45;100.00;101178.91;5095912;28;20066;-82
2022/10/14 04:22:59;;;;;;;26.67;14.27;;;;;;;12.43;100.00;101176.41;5078921;28;20043;-84
2022/10/14 04:25:26;;;;;;;27.48;14.10;;;;;;;12.43;100.00;101176.41;5062470;28;20564;-84
2022/10/14 04:27:51;;;;;;;27.07;15.03;;;;;;;12.43;100.00;101173.69;5096054;28;20047;-84
2022/10/14 04:30:17;;;;;;;27.45;14.05;;;;;;;12.41;100.00;101164.06;5096256;28;20039;-85
2022/10/14 04:32:42;;;;;;;31.13;14.10;;;;;;;12.45;100.00;101165.31;5095662;28;20023;-85
2022/10/14 04:35:08;;;;;;;22.93;13.97;;;;;;;12.46;100.00;101167.81;5096601;28;20035;-84
2022/10/14 04:37:34;;;;;;;24.35;14.05;;;;;;;12.49;100.00;101165.69;5095897;28;20070;-85
2022/10/14 04:39:59;;;;;;;24.77;14.03;;;;;;;12.46;100.00;101154.19;5079020;28;20062;-85
2022/10/14 04:42:25;;;;;;;27.52;13.80;;;;;;;12.44;100.00;101153.56;5079409;28;20031;-84
2022/10/14 04:44:50;;;;;;;23.27;13.00;;;;;;;12.46;100.00;101156.91;5114142;28;20429;-84
2022/10/14 04:47:16;;;;;;;26.87;13.60;;;;;;;12.44;100.00;101153.56;5095898;28;20599;-84
2022/10/14 04:49:41;;;;;;;26.10;12.90;;;;;;;12.45;100.00;101154.41;5095492;28;20123;-84
2022/10/14 04:52:06;;;;;;;24.70;12.35;;;;;;;12.45;100.00;101152.53;5095646;28;20035;-85
2022/10/14 04:54:32;;;;;;;24.20;13.23;;;;;;;12.42;100.00;101142.06;5078951;28;20152;-84
2022/10/14 04:57:00;;;;;;;21.50;12.57;;;;;;;12.44;100.00;101145.41;5079027;28;20360;-84
2022/10/14 04:59:25;;;;;;;20.60;11.98;;;;;;;12.43;100.00;101146.47;5079100;28;20035;-85
2022/10/14 05:01:50;;;;;;;24.00;11.53;;;;;;;12.42;100.00;101141.25;5096458;28;20499;-85
2022/10/14 05:04:16;;;;;;;20.70;11.90;;;;;;;12.37;100.00;101144.63;5096137;28;20080;-84
2022/10/14 05:06:41;;;;;;;23.53;12.30;;;;;;;12.36;100.00;101140.25;5095720;28;20498;-84
2022/10/14 05:09:10;;;;;;;23.73;11.93;;;;;;;12.37;100.00;101139.19;5095623;28;20376;-84
2022/10/14 05:11:35;;;;;;;24.42;12.60;;;;;;;12.42;100.00;101135.81;5095492;28;20582;-84
2022/10/14 05:14:01;;;;;;;20.83;11.73;;;;;;;12.42;100.00;101133.91;5113431;28;20110;-84
2022/10/14 05:16:26;;;;;;;22.93;12.20;;;;;;;12.41;100.00;101128.69;5095465;28;20518;-84
2022/10/14 05:18:54;;;;;;;19.70;11.45;;;;;;;12.39;100.00;101125.38;5099553;28;20039;-84
2022/10/14 05:21:20;;;;;;;18.23;11.57;;;;;;;12.41;100.00;101123.25;5082387;28;20538;-84
2022/10/14 05:23:48;;;;;;;19.17;11.85;;;;;;;12.41;100.00;101120.53;5099511;28;20111;-84
2022/10/14 05:26:13;;;;;;;22.33;11.13;;;;;;;12.41;100.00;101117.81;5099308;28;20052;-84
2022/10/14 05:28:42;;;;;;;17.90;10.83;;;;;;;12.42;100.00;101120.31;5099298;28;20062;-84
2022/10/14 05:31:07;;;;;;;17.98;11.23;;;;;;;12.40;100.00;101110.69;5083063;28;20032;-84
2022/10/14 05:33:33;;;;;;;17.47;10.20;;;;;;;12.40;100.00;101097.94;5099420;28;20030;-83
2022/10/14 05:35:58;;;;;;;15.97;10.43;;;;;;;12.38;100.00;101100.03;5082280;28;20058;-84
2022/10/14 05:38:24;;;;;;;14.77;10.57;;;;;;;12.38;100.00;101101.94;5099130;28;20319;-84
2022/10/14 05:40:54;;;;;;;16.73;9.73;;;;;;;12.39;100.00;101109.88;5098972;28;20122;-85
2022/10/14 05:43:19;;;;;;;15.60;10.30;;;;;;;12.36;100.00;101093.16;5116843;28;20035;-85
2022/10/14 05:45:45;;;;;;;14.67;9.53;;;;;;;12.36;100.00;101087.72;5117194;28;20467;-84
2022/10/14 05:48:10;;;;;;;15.00;9.63;;;;;;;12.36;100.00;101085.00;5082032;28;20035;-85
2022/10/14 05:50:36;;;;;;;16.27;9.80;;;;;;;12.37;100.00;101092.94;5081702;28;20072;-85
2022/10/14 05:53:04;;;;;;;14.93;9.63;;;;;;;12.35;100.00;101083.31;5082440;28;20034;-84
2022/10/14 05:55:30;;;;;;;17.67;9.70;;;;;;;12.38;100.00;101080.16;5081897;28;20658;-84
2022/10/14 05:57:56;;;;;;;15.95;9.63;;;;;;;12.38;100.00;101080.16;5081669;28;20059;-85
2022/10/14 06:00:24;;;;;;;20.48;9.90;;;;;;;12.38;100.00;101082.88;5098633;28;20026;-85
2022/10/14 06:02:50;;;;;;;16.00;10.40;;;;;;;12.37;100.00;101083.94;5098989;28;20043;-84
2022/10/14 06:05:16;;;;;;;14.87;9.67;;;;;;;12.38;100.00;101088.31;5081773;28;20413;-84
2022/10/14 06:07:41;;;;;;;16.80;10.20;;;;;;;12.37;100.00;101086.66;5081330;28;20364;-84
2022/10/14 06:10:07;;;;;;;15.63;9.02;;;;;;;12.38;100.00;101080.16;5098175;28;20062;-84
2022/10/14 06:12:32;;;;;;;16.27;10.20;;;;;;;12.38;100.00;101072.81;5098387;28;20056;-85
2022/10/14 06:14:58;;;;;;;16.07;10.03;;;;;;;12.40;100.00;101067.16;5081053;28;20042;-84
2022/10/14 06:17:23;;;;;;;18.10;10.18;;;;;;;12.38;100.00;101067.38;5080960;28;20031;-85
2022/10/14 06:19:49;;;;;;;18.70;10.20;;;;;;;12.38;100.00;101063.84;5098637;28;20046;-84
2022/10/14 06:22:14;;;;;;;17.80;10.40;;;;;;;12.40;100.00;101070.72;5097968;28;20122;-84
2022/10/14 06:24:42;;;;;;;15.15;9.23;;;;;;;12.40;100.00;101057.13;5115767;28;20028;-84
2022/10/14 06:27:10;;;;;;;15.55;9.95;;;;;;;12.40;100.00;101059.00;5098025;28;20039;-85
2022/10/14 06:29:38;;;;;;;16.40;9.60;;;;;;;12.44;100.00;101071.09;5097069;28;20034;-84
2022/10/14 06:32:04;;;;;;;16.38;10.13;;;;;;;12.44;100.00;101068.38;5097816;28;20464;-84
2022/10/14 06:34:29;;;;;;;17.88;9.60;;;;;;;12.44;100.00;101062.94;5081220;28;20038;-84
2022/10/14 06:36:55;;;;;;;14.37;9.40;;;;;;;12.45;100.00;101061.91;5080994;28;20036;-84
2022/10/14 06:39:21;;;;;;;14.63;9.05;;;;;;;12.46;100.00;101061.66;5080857;28;20365;-84
2022/10/14 06:41:46;;;;;;;18.83;9.57;;;;;;;12.47;100.00;101057.03;5097676;28;20184;-84
2022/10/14 06:44:12;;;;;;;17.17;9.93;;;;;;;12.51;100.00;101054.72;5081586;28;20024;-84
2022/10/14 06:46:38;;;;;;;13.48;9.65;;;;;;;12.50;100.00;101053.06;5097433;28;20036;-84
2022/10/14 06:49:03;;;;;;;15.57;9.30;;;;;;;12.52;100.00;101051.78;5097286;28;20046;-84
2022/10/14 06:51:29;;;;;;;14.70;9.73;;;;;;;12.57;100.00;101057.38;5097046;28;20470;-84
2022/10/14 06:53:54;;;;;;;13.33;9.30;;;;;;;12.61;100.00;101052.34;5079877;28;20088;-84
2022/10/14 06:56:19;;;;;;;14.63;9.53;;;;;;;12.60;100.00;101056.09;5080034;28;20689;-84
2022/10/14 06:58:45;;;;;;;16.00;9.83;;;;;;;12.60;100.00;101056.94;5097489;28;20043;-84
2022/10/14 07:01:10;;;;;;;17.13;10.30;;;;;;;12.62;100.00;101048.53;5097647;28;20491;-84
2022/10/14 07:03:39;;;;;;;16.53;9.17;;;;;;;12.60;100.00;101043.31;5097346;28;20114;-84
2022/10/14 07:06:06;;;;;;;15.98;9.23;;;;;;;12.62;100.00;101037.66;5080981;28;20035;-84
2022/10/14 07:08:32;;;;;;;13.65;8.93;;;;;;;12.66;100.00;101038.03;5097448;28;20073;-84
2022/10/14 07:10:57;;;;;;;16.03;9.43;;;;;;;12.65;100.00;101026.31;5063699;28;20032;-84
2022/10/14 07:13:22;;;;;;;12.77;9.23;;;;;;;12.69;100.00;101029.44;5097242;28;20081;-84
2022/10/14 07:15:49;;;;;;;15.57;9.32;;;;;;;12.71;100.00;101036.31;5097103;28;20554;-83
2022/10/14 07:18:14;;;;;;;12.40;8.30;;;;;;;12.72;100.00;101043.41;5115196;28;20038;-84
2022/10/14 07:20:40;;;;;;;17.25;9.73;;;;;;;12.76;100.00;101041.91;5080164;28;20067;-83
2022/10/14 07:23:05;;;;;;;12.43;8.57;;;;;;;12.76;100.00;101046.53;5115355;28;20096;-83
2022/10/14 07:25:40;;;;;;;14.43;8.90;;;;;;;12.76;100.00;101052.81;5079626;28;20048;-83
2022/10/14 07:28:05;;;;;;;13.10;8.93;;;;;;;12.77;100.00;101048.19;5081242;28;20093;-83
2022/10/14 07:30:31;;;;;;;15.07;8.90;;;;;;;12.81;100.00;101061.13;5096942;28;20027;-83
2022/10/14 07:32:58;;;;;;;12.77;8.63;;;;;;;12.81;100.00;101060.28;5080185;28;20123;-83
2022/10/14 07:35:25;;;;;;;16.70;9.07;;;;;;;12.88;100.00;101061.06;5096752;28;20536;-83
2022/10/14 07:37:51;;;;;;;17.80;9.48;;;;;;;12.88;100.00;101061.06;5097159;28;20118;-83
2022/10/14 07:40:17;;;;;;;15.68;9.25;;;;;;;12.91;100.00;101062.50;5095754;28;20111;-83
2022/10/14 07:42:42;;;;;;;13.43;9.00;;;;;;;12.94;100.00;101051.97;5096889;28;20084;-83
2022/10/14 07:45:09;;;;;;;14.00;8.80;;;;;;;12.97;100.00;101046.06;5096253;28;20500;-83
2022/10/14 07:47:34;;;;;;;12.07;8.68;;;;;;;13.01;100.00;101049.19;5096232;28;20061;-83
2022/10/14 07:50:02;;;;;;;12.97;8.20;;;;;;;13.08;100.00;101055.41;5095758;28;20032;-85
2022/10/14 07:52:28;;;;;;;12.73;8.30;;;;;;;13.15;100.00;101050.72;5080043;28;20090;-83
2022/10/14 07:54:53;;;;;;;12.57;7.87;;;;;;;13.21;100.00;101042.69;5096439;28;20424;-84
2022/10/14 07:57:19;;;;;;;12.88;8.18;;;;;;;13.28;100.00;101043.44;5114699;28;20036;-83
2022/10/14 07:59:45;;;;;;;11.40;7.50;;;;;;;13.36;100.00;101043.16;5096564;28;20396;-83
2022/10/14 08:02:11;;;;;;;10.77;8.00;;;;;;;13.40;100.00;101038.06;5079509;28;20035;-83
2022/10/14 08:04:36;;;;;;;9.80;7.72;;;;;;;13.43;100.00;101041.16;5079510;28;20055;-83
2022/10/14 08:07:05;;;;;;;12.23;7.57;;;;;;;13.49;100.00;101040.25;5096090;28;20032;-83
2022/10/14 08:09:34;;;;;;;11.63;8.00;;;;;;;13.58;100.00;101032.59;5114005;28;20027;-83
2022/10/14 08:11:59;;;;;;;11.33;7.50;;;;;;;13.63;100.00;101038.16;5095913;28;20118;-83
2022/10/14 08:14:25;;;;;;;11.75;7.40;;;;;;;13.70;100.00;101040.81;5096224;28;20107;-83
2022/10/14 08:16:50;;;;;;;13.23;7.93;;;;;;;13.73;100.00;101037.63;5079252;28;20035;-83
2022/10/14 08:19:15;;;;;;;8.70;7.27;;;;;;;13.78;100.00;101029.56;5096790;28;20022;-83
2022/10/14 08:21:42;;;;;;;8.90;7.10;;;;;;;13.85;100.00;101029.47;5096197;28;20515;-83
2022/10/14 08:24:08;;;;;;;9.43;6.90;;;;;;;13.82;100.00;101014.41;5078774;28;20023;-83
2022/10/14 08:26:36;;;;;;;10.50;7.75;;;;;;;13.89;100.00;101025.19;5079277;28;20073;-83
2022/10/14 08:29:04;;;;;;;12.73;7.80;;;;;;;13.98;100.00;101017.50;5096131;28;20459;-83
2022/10/14 08:31:31;;;;;;;9.45;7.10;;;;;;;14.04;100.00;101024.78;5114373;28;20028;-83
2022/10/14 08:33:56;;;;;;;9.50;6.93;;;;;;;14.06;100.00;101021.81;5095487;28;20039;-83
2022/10/14 08:36:22;;;;;;;9.88;7.15;;;;;;;14.05;100.00;101031.88;5096179;28;20027;-84
2022/10/14 08:38:50;;;;;;;9.50;7.00;;;;;;;14.15;100.00;101029.41;5096046;28;20524;-84
2022/10/14 08:41:45;;;;;;;12.35;6.80;;;;;;;14.22;100.00;101029.31;5095454;28;20084;-83
2022/10/14 08:44:23;;;;;;;10.07;7.22;;;;;;;14.27;100.00;101037.63;5094642;28;20135;-83
2022/10/14 08:46:55;;;;;;;9.23;6.55;;;;;;;14.31;100.00;101018.88;5113638;28;20034;-83
2022/10/14 08:49:26;;;;;;;10.50;7.10;;;;;;;14.40;100.00;101022.94;5095152;28;20035;-84
2022/10/14 08:52:05;;;;;;;8.63;6.73;;;;;;;14.47;100.00;101025.56;5096431;28;20031;-83
2022/10/14 08:54:37;;;;;;;8.52;6.80;;;;;;;14.57;100.00;101015.69;5100162;28;20028;-83
2022/10/14 08:57:13;;;;;;;8.50;6.50;;;;;;;14.59;100.00;101018.19;5100067;28;20042;-83
2022/10/14 08:59:41;;;;;;;8.35;6.38;;;;;;;14.50;100.00;101016.88;5100278;28;20031;-83
2022/10/14 09:02:38;;;;;;;9.48;7.10;;;;;;;14.53;100.00;101027.31;5100050;28;20387;-83
2022/10/14 09:05:05;;;;;;;11.03;6.33;;;;;;;14.54;100.00;101023.50;5110191;28;20039;-83
2022/10/14 09:07:34;;;;;;;10.75;6.13;;;;;;;14.51;100.00;101016.66;5099305;28;20092;-83
2022/10/14 09:10:10;;;;;;;9.15;6.78;;;;;;;14.52;100.00;101012.00;5099917;28;20122;-83
2022/10/14 09:12:38;;;;;;;9.98;6.38;;;;;;;14.59;100.00;101014.63;5099912;28;20034;-85
2022/10/14 09:15:12;;;;;;;10.23;6.80;;;;;;;14.66;100.00;101013.47;5099403;28;20059;-85
2022/10/14 09:17:56;;;;;;;8.03;6.27;;;;;;;14.70;100.00;101008.34;5099585;28;20111;-83
2022/10/14 09:20:23;;;;;;;8.02;6.05;;;;;;;14.64;100.00;101004.66;5117324;28;20068;-83
2022/10/14 09:23:15;;;;;;;10.18;6.07;;;;;;;14.65;100.00;101005.50;5082511;28;20451;-83
2022/10/14 09:26:03;;;;;;;8.98;5.97;;;;;;;14.66;100.00;101004.41;5098127;28;20054;-83
2022/10/14 09:28:37;;;;;;;8.85;6.45;;;;;;;14.64;100.00;101001.09;5099443;28;20061;-83
2022/10/14 09:31:07;;;;;;;9.17;6.00;;;;;;;14.59;100.00;100998.25;5099235;28;20043;-83
2022/10/14 09:33:38;;;;;;;8.75;6.20;;;;;;;14.55;100.00;100998.69;5099435;28;20035;-83
2022/10/14 09:36:04;;;;;;;8.15;5.93;;;;;;;14.54;100.00;101004.41;5083396;28;20024;-83
2022/10/14 09:38:30;;;;;;;8.90;6.03;;;;;;;14.50;100.00;100990.41;5098752;28;20092;-83
2022/10/14 09:40:58;;;;;;;6.27;5.33;;;;;;;14.51;100.00;100994.81;5098556;28;20036;-83
2022/10/14 09:43:24;;;;;;;7.45;5.53;;;;;;;14.51;100.00;100996.69;5098741;28;20105;-83
2022/10/14 09:46:16;;;;;;;6.60;5.63;;;;;;;14.56;100.00;100999.53;5098471;28;20035;-83
2022/10/14 09:48:45;;;;;;;8.60;5.70;;;;;;;14.53;100.00;100997.28;5094671;28;20266;-83
2022/10/14 09:51:28;;;;;;;7.65;6.10;;;;;;;14.50;100.00;100995.03;5098778;28;20085;-83
2022/10/14 09:53:56;;;;;;;7.10;5.80;;;;;;;14.36;100.00;100988.97;5098657;28;20026;-83
2022/10/14 09:56:31;;;;;;;8.18;6.40;;;;;;;14.29;100.00;100993.72;5116988;28;20055;-83
2022/10/14 09:58:57;;;;;;;10.93;6.32;;;;;;;14.24;100.00;100985.41;5098651;28;20118;-83
2022/10/14 10:01:35;;;;;;;7.00;6.00;;;;;;;14.15;100.00;100980.31;5116850;28;20028;-82
2022/10/14 10:04:30;;;;;;;10.32;6.78;;;;;;;14.14;100.00;100978.66;5115970;28;20073;-84
2022/10/14 10:06:56;;;;;;;13.55;7.35;;;;;;;14.24;100.00;100977.22;5098650;28;20046;-83
2022/10/14 10:09:22;;;;;;;9.48;6.68;;;;;;;14.19;100.00;100977.94;5098318;28;20027;-83
2022/10/14 10:11:47;;;;;;;7.97;6.63;;;;;;;14.19;100.00;100981.50;5099081;28;20027;-83
2022/10/14 10:14:27;;;;;;;15.40;8.07;;;;;;;14.20;100.00;100979.59;5098365;28;20425;-83
2022/10/14 10:17:08;;;;;;;10.80;8.07;;;;;;;14.17;100.00;100978.19;5098461;28;20472;-83
2022/10/14 10:19:46;;;;;;;13.38;7.72;;;;;;;14.14;100.00;100973.19;5098225;28;20464;-83
2022/10/14 10:22:15;;;;;;;12.32;7.75;;;;;;;14.15;100.00;100966.66;5066121;28;20419;-84
2022/10/14 10:24:41;;;;;;;10.90;7.90;;;;;;;14.14;100.00;100969.63;5115568;28;20030;-87
2022/10/14 10:27:20;;;;;;;13.70;7.93;;;;;;;14.11;100.00;100965.47;5098001;28;20032;-85
2022/10/14 10:29:45;;;;;;;13.00;8.27;;;;;;;14.11;100.00;100954.56;5097499;28;20028;-86
2022/10/14 10:32:28;;;;;;;13.80;8.60;;;;;;;14.11;100.00;100959.19;5065051;28;20088;-85
2022/10/14 10:34:57;;;;;;;10.27;8.52;;;;;;;14.16;100.00;100962.06;5116304;28;20026;-85
2022/10/14 10:37:26;;;;;;;13.57;8.57;;;;;;;14.14;100.00;100956.84;5097850;28;20078;-86
2022/10/14 10:40:26;;;;;;;9.40;7.57;;;;;;;14.16;100.00;100957.41;5098306;28;20027;-85
2022/10/14 10:43:05;;;;;;;12.93;7.72;;;;;;;14.21;100.00;100960.25;5098369;28;20101;-86
2022/10/14 10:45:49;;;;;;;10.30;7.67;;;;;;;14.23;100.00;100948.28;5097918;28;20038;-85
2022/10/14 10:48:19;;;;;;;12.13;8.38;;;;;;;14.21;100.00;100946.59;5097706;28;20035;-85
2022/10/14 10:51:00;;;;;;;8.90;7.50;;;;;;;14.26;100.00;100950.53;5097922;28;20027;-86
2022/10/14 10:53:40;;;;;;;10.88;7.82;;;;;;;14.27;100.00;100953.03;5115667;28;20019;-85
2022/10/14 10:56:27;;;;;;;9.15;8.15;;;;;;;14.27;100.00;100953.03;5097749;28;20020;-85
2022/10/14 10:59:15;;;;;;;11.00;7.70;;;;;;;14.34;100.00;100950.19;5116059;28;20048;-85
2022/10/14 11:02:11;;;;;;;9.23;7.97;;;;;;;14.30;100.00;100946.25;5097289;28;20081;-85
2022/10/14 11:04:53;;;;;;;10.32;8.15;;;;;;;14.22;100.00;100936.53;5097390;28;20035;-85
2022/10/14 11:13:35;;;;;;;10.30;9.07;;;;;;;14.27;100.00;100933.09;5116377;28;20462;-84
2022/10/14 11:16:26;;;;;;;12.07;9.13;;;;;;;14.25;100.00;100933.34;5047895;28;20118;-84
2022/10/14 11:19:06;;;;;;;10.00;8.48;;;;;;;14.17;100.00;100923.63;5098071;28;20408;-84
2022/10/14 11:21:41;;;;;;;11.63;9.27;;;;;;;14.07;100.00;100926.09;5096954;28;20074;-86
2022/10/14 11:24:53;;;;;;;13.30;9.73;;;;;;;14.07;100.00;100926.09;5097038;28;20418;-85
2022/10/14 11:27:44;;;;;;;12.40;10.53;;;;;;;14.12;100.00;100930.84;5086668;28;20043;-86